sensor_id;sensor_type;location;lat;lon;timestamp;P1;durP1;ratioP1;P2;durP2;ratioP2
69744;SDS011;57015;50.120;-5.168;2022-07-23T00:00:07;1.88;;;0.68;;
69744;SDS011;57015;50.120;-5.168;2022-07-23T00:02:33;1.90;;;0.70;;
69744;SDS011;57015;50.120;-5.168;2022-07-23T00:04:59;2.00;;;0.73;;
69744;SDS011;57015;50.120;-5.168;2022-07-23T00:07:24;1.57;;;0.40;;
69744;SDS011;57015;50.120;-5.168;2022-07-23T00:09:51;1.48;;;0.88;;
69744;SDS011;57015;50.120;-5.168;2022-07-23T00:12:16;3.13;;;0.70;;
69744;SDS011;57015;50.120;-5.168;2022-07-23T00:14:41;2.03;;;0.70;;
69744;SDS011;57015;50.120;-5.168;2022-07-23T00:17:07;1.70;;;0.80;;
69744;SDS011;57015;50.120;-5.168;2022-07-23T00:19:32;3.47;;;0.70;;
69744;SDS011;57015;50.120;-5.168;2022-07-23T00:21:57;2.10;;;0.82;;
69744;SDS011;57015;50.120;-5.168;2022-07-23T00:24:23;2.97;;;0.75;;
69744;SDS011;57015;50.120;-5.168;2022-07-23T00:26:48;1.97;;;0.77;;
69744;SDS011;57015;50.120;-5.168;2022-07-23T00:29:14;3.10;;;0.70;;
69744;SDS011;57015;50.120;-5.168;2022-07-23T00:31:39;3.17;;;0.70;;
69744;SDS011;57015;50.120;-5.168;2022-07-23T00:34:05;2.83;;;0.70;;
69744;SDS011;57015;50.120;-5.168;2022-07-23T00:36:31;3.23;;;0.57;;
69744;SDS011;57015;50.120;-5.168;2022-07-23T00:38:56;1.63;;;0.60;;
69744;SDS011;57015;50.120;-5.168;2022-07-23T00:41:22;1.80;;;0.60;;
69744;SDS011;57015;50.120;-5.168;2022-07-23T00:43:47;2.10;;;0.70;;
69744;SDS011;57015;50.120;-5.168;2022-07-23T00:46:13;2.03;;;0.50;;
69744;SDS011;57015;50.120;-5.168;2022-07-23T00:48:38;1.97;;;0.60;;
69744;SDS011;57015;50.120;-5.168;2022-07-23T00:51:04;1.70;;;0.57;;
69744;SDS011;57015;50.120;-5.168;2022-07-23T00:53:29;3.40;;;0.73;;
69744;SDS011;57015;50.120;-5.168;2022-07-23T00:55:56;1.65;;;0.40;;
69744;SDS011;57015;50.120;-5.168;2022-07-23T00:58:23;3.28;;;0.68;;
69744;SDS011;57015;50.120;-5.168;2022-07-23T01:00:49;1.90;;;0.63;;
69744;SDS011;57015;50.120;-5.168;2022-07-23T01:03:14;2.90;;;0.77;;
69744;SDS011;57015;50.120;-5.168;2022-07-23T01:05:40;2.27;;;0.77;;
69744;SDS011;57015;50.120;-5.168;2022-07-23T01:08:05;2.47;;;0.50;;
69744;SDS011;57015;50.120;-5.168;2022-07-23T01:10:31;1.55;;;0.60;;
69744;SDS011;57015;50.120;-5.168;2022-07-23T01:12:59;2.70;;;0.67;;
69744;SDS011;57015;50.120;-5.168;2022-07-23T01:15:29;1.25;;;0.47;;
69744;SDS011;57015;50.120;-5.168;2022-07-23T01:17:55;2.17;;;0.80;;
69744;SDS011;57015;50.120;-5.168;2022-07-23T01:20:21;1.60;;;0.60;;
69744;SDS011;57015;50.120;-5.168;2022-07-23T01:22:46;2.30;;;0.80;;
69744;SDS011;57015;50.120;-5.168;2022-07-23T01:25:12;1.63;;;0.50;;
69744;SDS011;57015;50.120;-5.168;2022-07-23T01:27:37;3.78;;;0.80;;
69744;SDS011;57015;50.120;-5.168;2022-07-23T01:30:03;2.00;;;0.63;;
69744;SDS011;57015;50.120;-5.168;2022-07-23T01:32:29;2.10;;;0.63;;
69744;SDS011;57015;50.120;-5.168;2022-07-23T01:34:54;2.20;;;0.70;;
69744;SDS011;57015;50.120;-5.168;2022-07-23T01:37:20;2.88;;;1.17;;
69744;SDS011;57015;50.120;-5.168;2022-07-23T01:39:45;1.85;;;0.60;;
69744;SDS011;57015;50.120;-5.168;2022-07-23T01:42:11;3.37;;;0.70;;
69744;SDS011;57015;50.120;-5.168;2022-07-23T01:44:36;2.17;;;0.60;;
69744;SDS011;57015;50.120;-5.168;2022-07-23T01:47:02;3.43;;;0.60;;
69744;SDS011;57015;50.120;-5.168;2022-07-23T01:49:27;1.88;;;0.60;;
69744;SDS011;57015;50.120;-5.168;2022-07-23T01:51:53;2.53;;;0.90;;
69744;SDS011;57015;50.120;-5.168;2022-07-23T01:54:25;2.90;;;0.70;;
69744;SDS011;57015;50.120;-5.168;2022-07-23T01:56:54;1.90;;;0.65;;
69744;SDS011;57015;50.120;-5.168;2022-07-23T01:59:20;1.77;;;0.53;;
69744;SDS011;57015;50.120;-5.168;2022-07-23T02:01:46;1.92;;;0.73;;
69744;SDS011;57015;50.120;-5.168;2022-07-23T02:04:11;3.13;;;0.90;;
69744;SDS011;57015;50.120;-5.168;2022-07-23T02:06:37;1.60;;;0.63;;
69744;SDS011;57015;50.120;-5.168;2022-07-23T02:09:02;2.67;;;0.70;;
69744;SDS011;57015;50.120;-5.168;2022-07-23T02:11:27;1.88;;;0.80;;
69744;SDS011;57015;50.120;-5.168;2022-07-23T02:13:53;2.73;;;0.70;;
69744;SDS011;57015;50.120;-5.168;2022-07-23T02:16:18;1.53;;;0.57;;
69744;SDS011;57015;50.120;-5.168;2022-07-23T02:18:44;2.63;;;0.77;;
69744;SDS011;57015;50.120;-5.168;2022-07-23T02:21:11;2.17;;;0.75;;
69744;SDS011;57015;50.120;-5.168;2022-07-23T02:23:36;1.57;;;0.63;;
69744;SDS011;57015;50.120;-5.168;2022-07-23T02:26:01;2.60;;;0.80;;
69744;SDS011;57015;50.120;-5.168;2022-07-23T02:28:27;2.08;;;0.80;;
69744;SDS011;57015;50.120;-5.168;2022-07-23T02:30:52;1.93;;;0.70;;
69744;SDS011;57015;50.120;-5.168;2022-07-23T02:33:18;2.27;;;0.60;;
69744;SDS011;57015;50.120;-5.168;2022-07-23T02:35:43;3.13;;;0.77;;
69744;SDS011;57015;50.120;-5.168;2022-07-23T02:38:09;2.10;;;0.80;;
69744;SDS011;57015;50.120;-5.168;2022-07-23T02:40:34;2.80;;;0.85;;
69744;SDS011;57015;50.120;-5.168;2022-07-23T02:42:59;1.63;;;0.50;;
69744;SDS011;57015;50.120;-5.168;2022-07-23T02:45:25;3.17;;;0.77;;
69744;SDS011;57015;50.120;-5.168;2022-07-23T02:47:50;2.20;;;0.87;;
69744;SDS011;57015;50.120;-5.168;2022-07-23T02:50:16;2.67;;;1.00;;
69744;SDS011;57015;50.120;-5.168;2022-07-23T02:52:41;2.77;;;0.70;;
69744;SDS011;57015;50.120;-5.168;2022-07-23T02:55:07;3.20;;;0.90;;
69744;SDS011;57015;50.120;-5.168;2022-07-23T02:57:32;2.83;;;0.70;;
69744;SDS011;57015;50.120;-5.168;2022-07-23T02:59:58;2.60;;;0.87;;
69744;SDS011;57015;50.120;-5.168;2022-07-23T03:02:23;1.90;;;0.80;;
69744;SDS011;57015;50.120;-5.168;2022-07-23T03:04:49;1.98;;;0.80;;
69744;SDS011;57015;50.120;-5.168;2022-07-23T03:07:16;2.13;;;0.95;;
69744;SDS011;57015;50.120;-5.168;2022-07-23T03:09:42;1.57;;;0.63;;
69744;SDS011;57015;50.120;-5.168;2022-07-23T03:12:08;2.40;;;0.90;;
69744;SDS011;57015;50.120;-5.168;2022-07-23T03:14:33;1.87;;;0.70;;
69744;SDS011;57015;50.120;-5.168;2022-07-23T03:16:59;2.55;;;0.75;;
69744;SDS011;57015;50.120;-5.168;2022-07-23T03:19:25;1.55;;;0.65;;
69744;SDS011;57015;50.120;-5.168;2022-07-23T03:21:51;2.95;;;0.88;;
69744;SDS011;57015;50.120;-5.168;2022-07-23T03:24:16;3.33;;;0.70;;
69744;SDS011;57015;50.120;-5.168;2022-07-23T03:26:45;1.85;;;0.90;;
69744;SDS011;57015;50.120;-5.168;2022-07-23T03:29:10;2.83;;;0.90;;
69744;SDS011;57015;50.120;-5.168;2022-07-23T03:31:36;1.93;;;0.90;;
69744;SDS011;57015;50.120;-5.168;2022-07-23T03:34:01;1.92;;;0.63;;
69744;SDS011;57015;50.120;-5.168;2022-07-23T03:36:27;2.23;;;0.77;;
69744;SDS011;57015;50.120;-5.168;2022-07-23T03:38:52;1.80;;;0.70;;
69744;SDS011;57015;50.120;-5.168;2022-07-23T03:41:18;2.13;;;0.80;;
69744;SDS011;57015;50.120;-5.168;2022-07-23T03:43:44;2.33;;;1.17;;
69744;SDS011;57015;50.120;-5.168;2022-07-23T03:46:09;1.98;;;0.80;;
69744;SDS011;57015;50.120;-5.168;2022-07-23T03:48:35;1.93;;;1.00;;
69744;SDS011;57015;50.120;-5.168;2022-07-23T03:51:01;2.30;;;0.70;;
69744;SDS011;57015;50.120;-5.168;2022-07-23T03:53:26;2.28;;;0.80;;
69744;SDS011;57015;50.120;-5.168;2022-07-23T03:55:51;2.45;;;0.90;;
69744;SDS011;57015;50.120;-5.168;2022-07-23T03:58:17;4.00;;;0.90;;
69744;SDS011;57015;50.120;-5.168;2022-07-23T04:00:42;2.00;;;0.80;;
69744;SDS011;57015;50.120;-5.168;2022-07-23T04:03:08;1.80;;;0.77;;
69744;SDS011;57015;50.120;-5.168;2022-07-23T04:05:33;2.20;;;1.10;;
69744;SDS011;57015;50.120;-5.168;2022-07-23T04:07:59;1.93;;;0.83;;
69744;SDS011;57015;50.120;-5.168;2022-07-23T04:10:24;2.03;;;0.80;;
69744;SDS011;57015;50.120;-5.168;2022-07-23T04:12:49;1.73;;;0.77;;
69744;SDS011;57015;50.120;-5.168;2022-07-23T04:15:15;4.10;;;1.03;;
69744;SDS011;57015;50.120;-5.168;2022-07-23T04:17:40;3.25;;;1.10;;
69744;SDS011;57015;50.120;-5.168;2022-07-23T04:20:06;2.67;;;0.80;;
69744;SDS011;57015;50.120;-5.168;2022-07-23T04:22:31;5.90;;;1.30;;
69744;SDS011;57015;50.120;-5.168;2022-07-23T04:24:57;4.43;;;1.05;;
69744;SDS011;57015;50.120;-5.168;2022-07-23T04:27:22;4.32;;;1.10;;
69744;SDS011;57015;50.120;-5.168;2022-07-23T04:29:48;5.10;;;1.20;;
69744;SDS011;57015;50.120;-5.168;2022-07-23T04:32:13;5.40;;;1.57;;
69744;SDS011;57015;50.120;-5.168;2022-07-23T04:34:38;5.07;;;1.40;;
69744;SDS011;57015;50.120;-5.168;2022-07-23T04:37:04;5.73;;;1.50;;
69744;SDS011;57015;50.120;-5.168;2022-07-23T04:39:29;4.43;;;1.53;;
69744;SDS011;57015;50.120;-5.168;2022-07-23T04:41:55;6.70;;;2.00;;
69744;SDS011;57015;50.120;-5.168;2022-07-23T04:44:21;8.10;;;1.70;;
69744;SDS011;57015;50.120;-5.168;2022-07-23T04:46:46;6.30;;;1.77;;
69744;SDS011;57015;50.120;-5.168;2022-07-23T04:49:11;4.40;;;1.40;;
69744;SDS011;57015;50.120;-5.168;2022-07-23T04:51:37;5.33;;;1.77;;
69744;SDS011;57015;50.120;-5.168;2022-07-23T04:54:02;3.63;;;1.50;;
69744;SDS011;57015;50.120;-5.168;2022-07-23T04:56:28;4.60;;;1.70;;
69744;SDS011;57015;50.120;-5.168;2022-07-23T04:58:53;5.33;;;1.77;;
69744;SDS011;57015;50.120;-5.168;2022-07-23T05:01:18;6.83;;;1.80;;
69744;SDS011;57015;50.120;-5.168;2022-07-23T05:03:44;4.60;;;1.60;;
69744;SDS011;57015;50.120;-5.168;2022-07-23T05:06:09;4.63;;;1.50;;
69744;SDS011;57015;50.120;-5.168;2022-07-23T05:08:35;5.87;;;2.03;;
69744;SDS011;57015;50.120;-5.168;2022-07-23T05:11:00;5.17;;;2.23;;
69744;SDS011;57015;50.120;-5.168;2022-07-23T05:13:25;5.10;;;2.00;;
69744;SDS011;57015;50.120;-5.168;2022-07-23T05:15:51;4.10;;;1.70;;
69744;SDS011;57015;50.120;-5.168;2022-07-23T05:18:16;5.75;;;2.10;;
69744;SDS011;57015;50.120;-5.168;2022-07-23T05:20:42;4.97;;;1.70;;
69744;SDS011;57015;50.120;-5.168;2022-07-23T05:23:07;5.20;;;1.77;;
69744;SDS011;57015;50.120;-5.168;2022-07-23T05:25:33;5.37;;;2.10;;
69744;SDS011;57015;50.120;-5.168;2022-07-23T05:27:58;4.57;;;1.55;;
69744;SDS011;57015;50.120;-5.168;2022-07-23T05:30:23;4.50;;;1.80;;
69744;SDS011;57015;50.120;-5.168;2022-07-23T05:32:49;4.50;;;1.90;;
69744;SDS011;57015;50.120;-5.168;2022-07-23T05:35:14;3.53;;;1.60;;
69744;SDS011;57015;50.120;-5.168;2022-07-23T05:37:40;5.07;;;1.77;;
69744;SDS011;57015;50.120;-5.168;2022-07-23T05:40:06;4.47;;;1.80;;
69744;SDS011;57015;50.120;-5.168;2022-07-23T05:42:34;7.00;;;2.10;;
69744;SDS011;57015;50.120;-5.168;2022-07-23T05:45:00;6.03;;;2.42;;
69744;SDS011;57015;50.120;-5.168;2022-07-23T05:47:25;4.63;;;2.27;;
69744;SDS011;57015;50.120;-5.168;2022-07-23T05:49:51;5.97;;;2.30;;
69744;SDS011;57015;50.120;-5.168;2022-07-23T05:52:16;4.10;;;2.00;;
69744;SDS011;57015;50.120;-5.168;2022-07-23T05:54:42;4.70;;;2.37;;
69744;SDS011;57015;50.120;-5.168;2022-07-23T05:57:07;4.50;;;2.20;;
69744;SDS011;57015;50.120;-5.168;2022-07-23T05:59:32;6.47;;;2.47;;
69744;SDS011;57015;50.120;-5.168;2022-07-23T06:01:58;6.75;;;2.70;;
69744;SDS011;57015;50.120;-5.168;2022-07-23T06:04:23;5.43;;;2.42;;
69744;SDS011;57015;50.120;-5.168;2022-07-23T06:06:49;5.97;;;2.60;;
69744;SDS011;57015;50.120;-5.168;2022-07-23T06:09:14;5.33;;;2.60;;
69744;SDS011;57015;50.120;-5.168;2022-07-23T06:11:40;5.15;;;2.10;;
69744;SDS011;57015;50.120;-5.168;2022-07-23T06:14:05;5.68;;;2.45;;
69744;SDS011;57015;50.120;-5.168;2022-07-23T06:16:31;4.77;;;2.30;;
69744;SDS011;57015;50.120;-5.168;2022-07-23T06:18:56;4.37;;;2.33;;
69744;SDS011;57015;50.120;-5.168;2022-07-23T06:21:22;6.18;;;2.60;;
69744;SDS011;57015;50.120;-5.168;2022-07-23T06:23:47;5.70;;;2.40;;
69744;SDS011;57015;50.120;-5.168;2022-07-23T06:26:13;4.80;;;2.50;;
69744;SDS011;57015;50.120;-5.168;2022-07-23T06:28:38;7.77;;;3.07;;
69744;SDS011;57015;50.120;-5.168;2022-07-23T06:31:03;6.17;;;2.80;;
69744;SDS011;57015;50.120;-5.168;2022-07-23T06:33:29;4.72;;;2.25;;
69744;SDS011;57015;50.120;-5.168;2022-07-23T06:35:54;5.97;;;2.80;;
69744;SDS011;57015;50.120;-5.168;2022-07-23T06:38:19;5.40;;;2.97;;
69744;SDS011;57015;50.120;-5.168;2022-07-23T06:40:45;5.50;;;2.77;;
69744;SDS011;57015;50.120;-5.168;2022-07-23T06:43:10;4.68;;;2.85;;
69744;SDS011;57015;50.120;-5.168;2022-07-23T06:45:36;4.60;;;2.35;;
69744;SDS011;57015;50.120;-5.168;2022-07-23T06:48:01;4.87;;;2.67;;
69744;SDS011;57015;50.120;-5.168;2022-07-23T06:50:28;4.88;;;2.30;;
69744;SDS011;57015;50.120;-5.168;2022-07-23T06:52:53;5.43;;;2.53;;
69744;SDS011;57015;50.120;-5.168;2022-07-23T06:55:19;9.20;;;3.20;;
69744;SDS011;57015;50.120;-5.168;2022-07-23T06:57:44;8.03;;;3.20;;
69744;SDS011;57015;50.120;-5.168;2022-07-23T07:00:10;7.53;;;2.97;;
69744;SDS011;57015;50.120;-5.168;2022-07-23T07:02:36;6.80;;;3.38;;
69744;SDS011;57015;50.120;-5.168;2022-07-23T07:05:02;14.67;;;4.03;;
69744;SDS011;57015;50.120;-5.168;2022-07-23T07:07:27;13.23;;;4.72;;
69744;SDS011;57015;50.120;-5.168;2022-07-23T07:09:53;7.73;;;3.97;;
69744;SDS011;57015;50.120;-5.168;2022-07-23T07:12:18;13.40;;;4.07;;
69744;SDS011;57015;50.120;-5.168;2022-07-23T07:14:44;13.15;;;4.60;;
69744;SDS011;57015;50.120;-5.168;2022-07-23T07:17:09;12.27;;;4.80;;
69744;SDS011;57015;50.120;-5.168;2022-07-23T07:19:36;11.07;;;4.40;;
69744;SDS011;57015;50.120;-5.168;2022-07-23T07:22:01;16.13;;;4.70;;
69744;SDS011;57015;50.120;-5.168;2022-07-23T07:24:27;14.13;;;4.60;;
69744;SDS011;57015;50.120;-5.168;2022-07-23T07:26:52;14.40;;;4.97;;
69744;SDS011;57015;50.120;-5.168;2022-07-23T07:29:18;13.37;;;4.20;;
69744;SDS011;57015;50.120;-5.168;2022-07-23T07:31:43;15.17;;;4.40;;
69744;SDS011;57015;50.120;-5.168;2022-07-23T07:34:09;10.75;;;3.88;;
69744;SDS011;57015;50.120;-5.168;2022-07-23T07:36:34;14.57;;;5.18;;
69744;SDS011;57015;50.120;-5.168;2022-07-23T07:39:02;19.23;;;4.83;;
69744;SDS011;57015;50.120;-5.168;2022-07-23T07:41:29;11.07;;;3.70;;
69744;SDS011;57015;50.120;-5.168;2022-07-23T07:43:54;8.67;;;3.70;;
69744;SDS011;57015;50.120;-5.168;2022-07-23T07:46:19;15.20;;;4.30;;
69744;SDS011;57015;50.120;-5.168;2022-07-23T07:48:45;17.63;;;4.43;;
69744;SDS011;57015;50.120;-5.168;2022-07-23T07:51:10;13.87;;;4.17;;
69744;SDS011;57015;50.120;-5.168;2022-07-23T07:53:36;12.37;;;3.83;;
69744;SDS011;57015;50.120;-5.168;2022-07-23T07:56:01;8.35;;;4.03;;
69744;SDS011;57015;50.120;-5.168;2022-07-23T07:58:27;13.05;;;3.63;;
69744;SDS011;57015;50.120;-5.168;2022-07-23T08:00:52;11.17;;;3.40;;
69744;SDS011;57015;50.120;-5.168;2022-07-23T08:03:17;10.47;;;4.33;;
69744;SDS011;57015;50.120;-5.168;2022-07-23T08:05:43;12.83;;;3.63;;
69744;SDS011;57015;50.120;-5.168;2022-07-23T08:08:08;10.65;;;3.72;;
69744;SDS011;57015;50.120;-5.168;2022-07-23T08:10:39;12.67;;;3.90;;
69744;SDS011;57015;50.120;-5.168;2022-07-23T08:13:05;11.68;;;3.88;;
69744;SDS011;57015;50.120;-5.168;2022-07-23T08:15:31;12.18;;;4.20;;
69744;SDS011;57015;50.120;-5.168;2022-07-23T08:17:56;12.27;;;3.72;;
69744;SDS011;57015;50.120;-5.168;2022-07-23T08:20:23;12.25;;;4.00;;
69744;SDS011;57015;50.120;-5.168;2022-07-23T08:25:23;11.68;;;3.72;;
69744;SDS011;57015;50.120;-5.168;2022-07-23T08:27:50;11.95;;;3.40;;
69744;SDS011;57015;50.120;-5.168;2022-07-23T08:30:16;9.10;;;3.53;;
69744;SDS011;57015;50.120;-5.168;2022-07-23T08:35:17;12.40;;;3.70;;
69744;SDS011;57015;50.120;-5.168;2022-07-23T08:37:46;13.50;;;3.80;;
69744;SDS011;57015;50.120;-5.168;2022-07-23T08:40:11;9.83;;;3.40;;
69744;SDS011;57015;50.120;-5.168;2022-07-23T08:42:37;11.10;;;3.35;;
69744;SDS011;57015;50.120;-5.168;2022-07-23T08:45:03;7.90;;;3.47;;
69744;SDS011;57015;50.120;-5.168;2022-07-23T08:47:29;10.40;;;3.70;;
69744;SDS011;57015;50.120;-5.168;2022-07-23T08:49:55;8.53;;;3.27;;
69744;SDS011;57015;50.120;-5.168;2022-07-23T08:52:24;11.80;;;3.33;;
69744;SDS011;57015;50.120;-5.168;2022-07-23T08:54:50;9.27;;;3.38;;
69744;SDS011;57015;50.120;-5.168;2022-07-23T08:57:16;8.73;;;3.38;;
69744;SDS011;57015;50.120;-5.168;2022-07-23T08:59:42;11.43;;;3.30;;
69744;SDS011;57015;50.120;-5.168;2022-07-23T09:02:07;8.63;;;3.40;;
69744;SDS011;57015;50.120;-5.168;2022-07-23T09:04:32;9.97;;;3.37;;
69744;SDS011;57015;50.120;-5.168;2022-07-23T09:06:58;13.52;;;3.08;;
69744;SDS011;57015;50.120;-5.168;2022-07-23T09:09:23;9.35;;;3.10;;
69744;SDS011;57015;50.120;-5.168;2022-07-23T09:12:04;10.25;;;3.00;;
69744;SDS011;57015;50.120;-5.168;2022-07-23T09:14:38;7.73;;;2.57;;
69744;SDS011;57015;50.120;-5.168;2022-07-23T09:17:08;10.30;;;3.78;;
69744;SDS011;57015;50.120;-5.168;2022-07-23T09:19:37;8.35;;;2.92;;
69744;SDS011;57015;50.120;-5.168;2022-07-23T09:22:19;10.55;;;3.10;;
69744;SDS011;57015;50.120;-5.168;2022-07-23T09:27:47;16.08;;;3.55;;
69744;SDS011;57015;50.120;-5.168;2022-07-23T09:30:20;9.20;;;2.90;;
69744;SDS011;57015;50.120;-5.168;2022-07-23T09:38:13;10.97;;;2.40;;
69744;SDS011;57015;50.120;-5.168;2022-07-23T09:40:38;10.27;;;3.08;;
69744;SDS011;57015;50.120;-5.168;2022-07-23T09:43:04;11.37;;;2.23;;
69744;SDS011;57015;50.120;-5.168;2022-07-23T09:45:29;7.13;;;2.70;;
69744;SDS011;57015;50.120;-5.168;2022-07-23T09:48:14;8.77;;;2.63;;
69744;SDS011;57015;50.120;-5.168;2022-07-23T09:50:40;8.50;;;2.57;;
69744;SDS011;57015;50.120;-5.168;2022-07-23T09:53:06;5.47;;;2.38;;
69744;SDS011;57015;50.120;-5.168;2022-07-23T09:55:33;7.07;;;2.67;;
69744;SDS011;57015;50.120;-5.168;2022-07-23T09:58:03;7.82;;;2.35;;
69744;SDS011;57015;50.120;-5.168;2022-07-23T10:00:29;7.70;;;2.40;;
69744;SDS011;57015;50.120;-5.168;2022-07-23T10:02:56;9.07;;;2.55;;
69744;SDS011;57015;50.120;-5.168;2022-07-23T10:05:22;6.85;;;2.90;;
69744;SDS011;57015;50.120;-5.168;2022-07-23T10:07:48;11.25;;;2.90;;
69744;SDS011;57015;50.120;-5.168;2022-07-23T10:10:15;7.38;;;2.55;;
69744;SDS011;57015;50.120;-5.168;2022-07-23T10:12:45;9.27;;;2.50;;
69744;SDS011;57015;50.120;-5.168;2022-07-23T10:15:50;8.18;;;2.65;;
69744;SDS011;57015;50.120;-5.168;2022-07-23T10:18:16;8.10;;;2.47;;
69744;SDS011;57015;50.120;-5.168;2022-07-23T10:20:42;8.43;;;2.27;;
69744;SDS011;57015;50.120;-5.168;2022-07-23T10:23:14;6.60;;;2.17;;
69744;SDS011;57015;50.120;-5.168;2022-07-23T10:34:10;8.93;;;2.13;;
69744;SDS011;57015;50.120;-5.168;2022-07-23T10:41:38;9.20;;;2.80;;
69744;SDS011;57015;50.120;-5.168;2022-07-23T10:44:11;7.05;;;2.63;;
69744;SDS011;57015;50.120;-5.168;2022-07-23T10:46:54;9.38;;;2.42;;
69744;SDS011;57015;50.120;-5.168;2022-07-23T10:49:45;7.72;;;2.60;;
69744;SDS011;57015;50.120;-5.168;2022-07-23T10:57:27;11.67;;;2.97;;
69744;SDS011;57015;50.120;-5.168;2022-07-23T11:02:37;10.77;;;2.72;;
69744;SDS011;57015;50.120;-5.168;2022-07-23T11:05:05;9.57;;;3.03;;
69744;SDS011;57015;50.120;-5.168;2022-07-23T11:07:35;8.50;;;2.60;;
69744;SDS011;57015;50.120;-5.168;2022-07-23T11:10:02;11.88;;;2.28;;
69744;SDS011;57015;50.120;-5.168;2022-07-23T11:17:26;7.95;;;2.33;;
69744;SDS011;57015;50.120;-5.168;2022-07-23T11:22:59;10.98;;;3.00;;
69744;SDS011;57015;50.120;-5.168;2022-07-23T11:27:51;7.83;;;2.13;;
69744;SDS011;57015;50.120;-5.168;2022-07-23T11:32:51;7.28;;;2.10;;
69744;SDS011;57015;50.120;-5.168;2022-07-23T11:38:14;9.02;;;2.30;;
69744;SDS011;57015;50.120;-5.168;2022-07-23T11:40:39;9.63;;;2.97;;
69744;SDS011;57015;50.120;-5.168;2022-07-23T11:43:09;8.30;;;2.10;;
69744;SDS011;57015;50.120;-5.168;2022-07-23T11:45:36;7.38;;;2.20;;
69744;SDS011;57015;50.120;-5.168;2022-07-23T11:48:04;8.48;;;2.70;;
69744;SDS011;57015;50.120;-5.168;2022-07-23T11:50:31;8.80;;;2.40;;
69744;SDS011;57015;50.120;-5.168;2022-07-23T11:52:57;7.30;;;2.27;;
69744;SDS011;57015;50.120;-5.168;2022-07-23T11:55:22;10.93;;;2.45;;
69744;SDS011;57015;50.120;-5.168;2022-07-23T11:57:50;7.23;;;2.70;;
69744;SDS011;57015;50.120;-5.168;2022-07-23T12:00:17;11.40;;;2.67;;
69744;SDS011;57015;50.120;-5.168;2022-07-23T12:02:55;9.75;;;2.67;;
69744;SDS011;57015;50.120;-5.168;2022-07-23T12:05:28;9.30;;;2.58;;
69744;SDS011;57015;50.120;-5.168;2022-07-23T12:07:58;6.90;;;2.23;;
69744;SDS011;57015;50.120;-5.168;2022-07-23T12:10:26;10.82;;;3.05;;
69744;SDS011;57015;50.120;-5.168;2022-07-23T12:12:59;10.57;;;2.20;;
69744;SDS011;57015;50.120;-5.168;2022-07-23T12:15:31;10.25;;;2.35;;
69744;SDS011;57015;50.120;-5.168;2022-07-23T12:17:59;8.25;;;2.65;;
69744;SDS011;57015;50.120;-5.168;2022-07-23T12:20:26;8.77;;;2.10;;
69744;SDS011;57015;50.120;-5.168;2022-07-23T12:22:58;12.00;;;2.60;;
69744;SDS011;57015;50.120;-5.168;2022-07-23T12:25:25;14.57;;;2.85;;
69744;SDS011;57015;50.120;-5.168;2022-07-23T12:28:03;8.43;;;2.88;;
69744;SDS011;57015;50.120;-5.168;2022-07-23T12:30:34;9.40;;;2.60;;
69744;SDS011;57015;50.120;-5.168;2022-07-23T12:33:06;8.77;;;2.53;;
69744;SDS011;57015;50.120;-5.168;2022-07-23T12:35:44;8.90;;;2.45;;
69744;SDS011;57015;50.120;-5.168;2022-07-23T12:38:12;9.73;;;2.30;;
69744;SDS011;57015;50.120;-5.168;2022-07-23T12:40:46;14.52;;;2.83;;
69744;SDS011;57015;50.120;-5.168;2022-07-23T12:43:22;10.75;;;2.55;;
69744;SDS011;57015;50.120;-5.168;2022-07-23T12:48:22;7.45;;;2.10;;
69744;SDS011;57015;50.120;-5.168;2022-07-23T12:53:31;10.43;;;2.40;;
69744;SDS011;57015;50.120;-5.168;2022-07-23T12:55:59;10.48;;;2.80;;
69744;SDS011;57015;50.120;-5.168;2022-07-23T12:58:26;7.83;;;2.43;;
69744;SDS011;57015;50.120;-5.168;2022-07-23T13:03:28;6.57;;;2.30;;
69744;SDS011;57015;50.120;-5.168;2022-07-23T13:05:54;11.35;;;2.70;;
69744;SDS011;57015;50.120;-5.168;2022-07-23T13:08:20;9.68;;;2.30;;
69744;SDS011;57015;50.120;-5.168;2022-07-23T13:10:46;8.50;;;2.35;;
69744;SDS011;57015;50.120;-5.168;2022-07-23T13:13:14;8.17;;;2.37;;
69744;SDS011;57015;50.120;-5.168;2022-07-23T13:15:41;9.20;;;2.70;;
69744;SDS011;57015;50.120;-5.168;2022-07-23T13:18:07;8.98;;;3.17;;
69744;SDS011;57015;50.120;-5.168;2022-07-23T13:20:32;7.40;;;2.57;;
69744;SDS011;57015;50.120;-5.168;2022-07-23T13:22:59;11.07;;;3.63;;
69744;SDS011;57015;50.120;-5.168;2022-07-23T13:25:25;12.10;;;2.88;;
69744;SDS011;57015;50.120;-5.168;2022-07-23T13:27:51;10.07;;;2.50;;
69744;SDS011;57015;50.120;-5.168;2022-07-23T13:30:16;10.83;;;2.73;;
69744;SDS011;57015;50.120;-5.168;2022-07-23T13:32:41;10.83;;;3.30;;
69744;SDS011;57015;50.120;-5.168;2022-07-23T13:35:08;12.55;;;2.72;;
69744;SDS011;57015;50.120;-5.168;2022-07-23T13:37:34;9.90;;;2.72;;
69744;SDS011;57015;50.120;-5.168;2022-07-23T13:39:59;12.37;;;2.80;;
69744;SDS011;57015;50.120;-5.168;2022-07-23T13:42:25;10.77;;;2.63;;
69744;SDS011;57015;50.120;-5.168;2022-07-23T13:44:50;11.13;;;2.47;;
69744;SDS011;57015;50.120;-5.168;2022-07-23T13:47:15;15.43;;;3.10;;
69744;SDS011;57015;50.120;-5.168;2022-07-23T13:49:41;10.13;;;2.07;;
69744;SDS011;57015;50.120;-5.168;2022-07-23T13:52:06;8.97;;;2.33;;
69744;SDS011;57015;50.120;-5.168;2022-07-23T13:54:32;11.30;;;2.57;;
69744;SDS011;57015;50.120;-5.168;2022-07-23T13:56:57;10.87;;;2.30;;
69744;SDS011;57015;50.120;-5.168;2022-07-23T13:59:23;7.05;;;2.30;;
69744;SDS011;57015;50.120;-5.168;2022-07-23T14:01:48;8.23;;;2.13;;
69744;SDS011;57015;50.120;-5.168;2022-07-23T14:04:13;7.33;;;2.37;;
69744;SDS011;57015;50.120;-5.168;2022-07-23T14:06:39;8.43;;;2.40;;
69744;SDS011;57015;50.120;-5.168;2022-07-23T14:09:04;6.83;;;2.17;;
69744;SDS011;57015;50.120;-5.168;2022-07-23T14:11:30;9.07;;;2.28;;
69744;SDS011;57015;50.120;-5.168;2022-07-23T14:13:56;8.00;;;2.23;;
69744;SDS011;57015;50.120;-5.168;2022-07-23T14:16:22;9.95;;;2.28;;
69744;SDS011;57015;50.120;-5.168;2022-07-23T14:18:47;10.43;;;2.20;;
69744;SDS011;57015;50.120;-5.168;2022-07-23T14:21:13;7.93;;;2.07;;
69744;SDS011;57015;50.120;-5.168;2022-07-23T14:23:38;14.17;;;2.37;;
69744;SDS011;57015;50.120;-5.168;2022-07-23T14:26:04;8.40;;;2.00;;
69744;SDS011;57015;50.120;-5.168;2022-07-23T14:28:29;9.77;;;1.65;;
69744;SDS011;57015;50.120;-5.168;2022-07-23T14:30:58;8.37;;;2.20;;
69744;SDS011;57015;50.120;-5.168;2022-07-23T14:33:23;8.40;;;1.77;;
69744;SDS011;57015;50.120;-5.168;2022-07-23T14:35:48;9.40;;;2.43;;
69744;SDS011;57015;50.120;-5.168;2022-07-23T14:38:14;14.20;;;2.70;;
69744;SDS011;57015;50.120;-5.168;2022-07-23T14:40:39;13.47;;;2.53;;
69744;SDS011;57015;50.120;-5.168;2022-07-23T14:43:05;8.88;;;2.80;;
69744;SDS011;57015;50.120;-5.168;2022-07-23T14:45:31;11.50;;;2.43;;
69744;SDS011;57015;50.120;-5.168;2022-07-23T14:47:56;9.43;;;2.20;;
69744;SDS011;57015;50.120;-5.168;2022-07-23T14:50:22;10.55;;;2.35;;
69744;SDS011;57015;50.120;-5.168;2022-07-23T14:52:47;11.37;;;2.53;;
69744;SDS011;57015;50.120;-5.168;2022-07-23T14:55:12;8.97;;;2.53;;
69744;SDS011;57015;50.120;-5.168;2022-07-23T14:57:38;11.27;;;2.53;;
69744;SDS011;57015;50.120;-5.168;2022-07-23T15:00:04;10.43;;;2.40;;
69744;SDS011;57015;50.120;-5.168;2022-07-23T15:02:31;10.38;;;2.55;;
69744;SDS011;57015;50.120;-5.168;2022-07-23T15:04:56;7.93;;;2.13;;
69744;SDS011;57015;50.120;-5.168;2022-07-23T15:07:25;13.30;;;3.10;;
69744;SDS011;57015;50.120;-5.168;2022-07-23T15:09:51;7.97;;;2.38;;
69744;SDS011;57015;50.120;-5.168;2022-07-23T15:12:17;6.77;;;1.80;;
69744;SDS011;57015;50.120;-5.168;2022-07-23T15:14:42;9.87;;;2.10;;
69744;SDS011;57015;50.120;-5.168;2022-07-23T15:17:08;6.27;;;2.27;;
69744;SDS011;57015;50.120;-5.168;2022-07-23T15:19:33;10.38;;;2.42;;
69744;SDS011;57015;50.120;-5.168;2022-07-23T15:21:59;10.67;;;2.70;;
69744;SDS011;57015;50.120;-5.168;2022-07-23T15:24:24;6.73;;;2.10;;